Time;durP1;ratioP1;P1;durP2;ratioP2;P2;SDS_P1;SDS_P2;PMS_P1;PMS_P2;Temp;Humidity;BMP_temperature;BMP_pressure;BME280_temperature;BME280_humidity;BME280_pressure;Samples;Min_cycle;Max_cycle;Signal;HPM_P1;HPM_P2
2023/01/11 00:01:01;;;;;;;10.27;9.18;;;;;;;-146.25;100.00;52493.91;2079002;28;40338;-78
2023/01/11 00:02:03;;;;;;;11.43;9.23;;;;;;;-146.25;100.00;52497.97;2080666;28;20688;-78
2023/01/11 00:03:05;;;;;;;11.00;9.90;;;;;;;-146.25;100.00;52489.84;2087041;28;42437;-77
2023/01/11 00:04:07;;;;;;;10.77;9.70;;;;;;;-146.25;100.00;52467.56;2087337;28;42210;-78
2023/01/11 00:05:11;;;;;;;13.32;9.48;;;;;;;-146.25;100.00;52510.13;2080920;28;20046;-78
2023/01/11 00:06:13;;;;;;;11.15;10.05;;;;;;;-146.25;100.00;52491.88;2079453;28;40566;-77
2023/01/11 00:07:14;;;;;;;11.40;10.30;;;;;;;-146.25;100.00;52489.84;2079263;28;41617;-78
2023/01/11 00:08:18;;;;;;;14.05;11.45;;;;;;;-146.25;100.00;52487.81;2087843;28;42391;-78
2023/01/11 00:09:22;;;;;;;13.45;10.35;;;;;;;-146.25;100.00;52514.19;2086930;28;41338;-78
2023/01/11 00:10:23;;;;;;;11.38;10.18;;;;;;;-146.25;100.00;52502.03;2088803;28;20131;-78
2023/01/11 00:11:26;;;;;;;11.95;10.68;;;;;;;-146.25;100.00;52516.22;2087377;28;37696;-77
2023/01/11 00:12:28;;;;;;;11.80;10.60;;;;;;;-146.25;100.00;52546.63;2080130;28;37344;-78
2023/01/11 00:13:32;;;;;;;12.32;10.15;;;;;;;-146.25;100.00;52502.03;2079874;28;33365;-77
2023/01/11 00:14:33;;;;;;;11.90;10.43;;;;;;;-146.25;100.00;52487.81;2087913;28;43361;-78
2023/01/11 00:15:37;;;;;;;11.25;10.15;;;;;;;-146.25;100.00;52526.34;2087422;28;39860;-78
2023/01/11 00:16:38;;;;;;;12.40;11.23;;;;;;;-146.25;100.00;52479.72;2080181;28;38846;-78
2023/01/11 00:17:40;;;;;;;11.85;9.88;;;;;;;-146.25;100.00;52473.63;2079956;28;39180;-78
2023/01/11 00:18:42;;;;;;;11.77;10.68;;;;;;;-146.25;100.00;52481.75;2080966;28;20918;-78
2023/01/11 00:19:44;;;;;;;13.10;10.82;;;;;;;-146.25;100.00;52497.97;2079726;28;38511;-78
2023/01/11 00:20:45;;;;;;;12.93;11.63;;;;;;;-146.25;100.00;52504.03;2080403;28;40691;-78
2023/01/11 00:21:48;;;;;;;12.90;11.25;;;;;;;-146.25;100.00;52524.31;2079792;28;39235;-78
2023/01/11 00:22:50;;;;;;;12.88;11.30;;;;;;;-146.25;100.00;52477.69;2079963;28;45250;-78
2023/01/11 00:23:52;;;;;;;13.38;11.98;;;;;;;-146.25;100.00;52546.63;2088065;28;20185;-78
2023/01/11 00:24:54;;;;;;;13.75;11.50;;;;;;;-146.25;100.00;52534.47;2088258;28;20045;-78
2023/01/11 00:25:56;;;;;;;12.32;11.10;;;;;;;-146.25;100.00;52506.06;2079991;28;42379;-77
2023/01/11 00:26:57;;;;;;;14.35;11.52;;;;;;;-146.25;100.00;52504.03;2080163;28;37728;-77
2023/01/11 00:27:59;;;;;;;13.15;11.80;;;;;;;-146.25;100.00;52504.03;2087375;28;38076;-78
2023/01/11 00:29:01;;;;;;;12.40;11.13;;;;;;;-146.25;100.00;52506.06;2085521;28;20958;-78
2023/01/11 00:30:03;;;;;;;12.45;11.25;;;;;;;-146.25;100.00;52477.69;2079822;28;21306;-77
2023/01/11 00:31:05;;;;;;;12.25;10.95;;;;;;;-146.25;100.00;52502.03;2079210;28;37587;-77
2023/01/11 00:32:07;;;;;;;12.75;11.35;;;;;;;-146.25;100.00;52520.28;2080078;28;20132;-77
2023/01/11 00:33:09;;;;;;;14.68;11.93;;;;;;;-146.25;100.00;52489.84;2078576;28;42133;-77
2023/01/11 00:34:11;;;;;;;14.63;13.18;;;;;;;-146.25;100.00;52510.13;2079237;28;32728;-77
2023/01/11 00:35:13;;;;;;;13.98;12.57;;;;;;;-146.25;100.00;52524.31;2079887;28;36510;-77
2023/01/11 00:36:15;;;;;;;12.40;11.30;;;;;;;-146.25;100.00;52493.91;2079012;28;41775;-77
2023/01/11 00:37:20;;;;;;;12.52;11.02;;;;;;;-146.25;100.00;52538.53;2080346;28;33826;-78
2023/01/11 00:39:43;;;;;;;13.05;11.75;;;;;;;-146.25;100.00;52506.06;2079981;28;39671;-78
2023/01/11 00:40:45;;;;;;;13.88;11.63;;;;;;;-146.25;100.00;52524.31;2078782;28;39106;-78
2023/01/11 00:48:48;;;;;;;12.13;11.00;;;;;;;-146.25;100.00;52530.41;2076798;28;39222;-77
2023/01/11 00:49:50;;;;;;;12.20;11.00;;;;;;;-146.25;100.00;52510.13;2080109;28;34266;-77
2023/01/11 00:50:55;;;;;;;11.60;10.52;;;;;;;-146.25;100.00;52514.19;2080006;28;39550;-78
2023/01/11 00:51:57;;;;;;;12.35;10.48;;;;;;;-146.25;100.00;52485.81;2078987;28;40619;-77
2023/01/11 00:53:00;;;;;;;12.88;11.60;;;;;;;-146.25;100.00;52504.03;2079297;28;40628;-78
2023/01/11 00:54:01;;;;;;;12.32;10.98;;;;;;;-146.25;100.00;52493.91;2079689;28;27528;-77
2023/01/11 00:55:03;;;;;;;11.68;10.35;;;;;;;-146.25;100.00;52497.97;2079163;28;39948;-77
2023/01/11 00:56:06;;;;;;;12.07;10.82;;;;;;;-146.25;100.00;52514.19;2079140;28;38390;-78
2023/01/11 00:57:08;;;;;;;12.35;11.07;;;;;;;-146.25;100.00;52510.13;2079219;28;38127;-78
2023/01/11 00:58:10;;;;;;;12.30;10.73;;;;;;;-146.25;100.00;52467.56;2079841;28;36907;-77
2023/01/11 00:59:12;;;;;;;12.32;11.02;;;;;;;-146.25;100.00;52502.03;2080429;28;20033;-77
2023/01/11 01:00:19;;;;;;;12.13;11.00;;;;;;;-146.25;100.00;52510.13;2081318;28;20038;-77
2023/01/11 01:01:21;;;;;;;11.82;10.65;;;;;;;-146.25;100.00;52485.81;2087148;28;39124;-77
2023/01/11 01:02:23;;;;;;;12.35;10.52;;;;;;;-146.25;100.00;52530.41;2087561;28;20128;-78
2023/01/11 01:03:25;;;;;;;11.02;9.93;;;;;;;-146.25;100.00;52550.69;2079984;28;38062;-78
2023/01/11 01:04:27;;;;;;;12.32;11.05;;;;;;;-146.25;100.00;52526.34;2079759;28;42738;-78
2023/01/11 01:05:35;;;;;;;12.32;11.13;;;;;;;-146.25;100.00;52485.81;2079883;28;35894;-78
2023/01/11 01:06:37;;;;;;;12.55;11.25;;;;;;;-146.25;100.00;52502.03;2080697;28;20041;-78
2023/01/11 01:07:40;;;;;;;11.70;10.60;;;;;;;-146.25;100.00;52489.84;2079421;28;39746;-77
2023/01/11 01:08:42;;;;;;;13.15;11.85;;;;;;;-146.25;100.00;52536.50;2087290;28;34801;-78
2023/01/11 01:09:44;;;;;;;11.63;10.52;;;;;;;-146.25;100.00;52497.97;2087575;28;20045;-77
2023/01/11 01:10:45;;;;;;;11.75;10.55;;;;;;;-146.25;100.00;52493.91;2079630;28;41221;-78
2023/01/11 01:11:47;;;;;;;12.25;10.98;;;;;;;-146.25;100.00;52493.91;2079390;28;40552;-77
2023/01/11 01:14:27;;;;;;;;;;;;;;;-146.25;100.00;52508.09;2087122;28;39530;-78
2023/01/11 01:15:29;;;;;;;11.50;10.40;;;;;;;-146.25;100.00;52453.34;2082505;28;38447;-77
2023/01/11 01:16:31;;;;;;;12.25;10.95;;;;;;;-146.25;100.00;52475.66;2087305;28;41028;-78
2023/01/11 01:17:33;;;;;;;11.85;10.77;;;;;;;-146.25;100.00;52528.38;2078831;28;38327;-77
2023/01/11 01:18:34;;;;;;;11.45;10.45;;;;;;;-146.25;100.00;52514.19;2071285;28;24827;-77
2023/01/11 01:19:40;;;;;;;12.30;11.18;;;;;;;-146.25;100.00;52489.84;2079982;28;40148;-78
2023/01/11 01:20:44;;;;;;;12.50;11.30;;;;;;;-146.25;100.00;52469.56;2079884;28;39913;-77
2023/01/11 01:21:49;;;;;;;12.35;11.02;;;;;;;-146.25;100.00;52491.88;2087361;28;36415;-77
2023/01/11 01:22:51;;;;;;;13.93;11.48;;;;;;;-146.25;100.00;52542.56;2086974;28;39419;-77
2023/01/11 01:23:56;;;;;;;12.00;10.80;;;;;;;-146.25;100.00;52504.03;2078696;28;38040;-77
2023/01/11 01:24:57;;;;;;;12.60;11.30;;;;;;;-146.25;100.00;52500.00;2078700;28;40903;-77
2023/01/11 01:26:03;;;;;;;12.82;11.73;;;;;;;-146.25;100.00;52500.00;2078886;28;37975;-78
2023/01/11 01:27:05;;;;;;;12.20;11.00;;;;;;;-146.25;100.00;52506.06;2087055;28;38763;-77
2023/01/11 01:28:06;;;;;;;13.32;12.02;;;;;;;-146.25;100.00;52463.50;2087118;28;34828;-77
2023/01/11 01:29:08;;;;;;;13.13;11.73;;;;;;;-146.25;100.00;52512.16;2078606;28;35799;-77
2023/01/11 01:30:11;;;;;;;13.27;11.93;;;;;;;-146.25;100.00;52487.81;2079730;28;20122;-77
2023/01/11 01:31:13;;;;;;;12.57;11.25;;;;;;;-146.25;100.00;52469.56;2079467;28;37715;-77
2023/01/11 01:32:14;;;;;;;13.90;12.50;;;;;;;-146.25;100.00;52524.31;2079850;28;23152;-77
2023/01/11 01:33:16;;;;;;;14.43;12.98;;;;;;;-146.25;100.00;52522.28;2087406;28;34733;-77
2023/01/11 01:34:18;;;;;;;14.23;12.93;;;;;;;-146.25;100.00;52487.81;2086912;28;42264;-78
2023/01/11 01:35:20;;;;;;;13.70;12.50;;;;;;;-146.25;100.00;52504.03;2087056;28;38173;-77
2023/01/11 01:36:21;;;;;;;13.52;12.15;;;;;;;-146.25;100.00;52500.00;2087675;28;20764;-77
2023/01/11 01:37:23;;;;;;;14.25;12.77;;;;;;;-146.25;100.00;52514.19;2079400;28;42106;-77
2023/01/11 01:38:25;;;;;;;14.38;13.00;;;;;;;-146.25;100.00;52544.59;2079157;28;38716;-77
2023/01/11 01:39:27;;;;;;;14.02;12.63;;;;;;;-146.25;100.00;52495.94;2079003;28;40113;-77
2023/01/11 01:40:29;;;;;;;13.38;12.10;;;;;;;-146.25;100.00;52506.06;2078764;28;40743;-77
2023/01/11 01:41:30;;;;;;;13.85;12.43;;;;;;;-146.25;100.00;52483.78;2079192;28;34728;-77
2023/01/11 01:42:32;;;;;;;15.02;12.73;;;;;;;-146.25;100.00;52508.09;2079591;28;38903;-77
2023/01/11 01:43:56;;;;;;;13.90;12.60;;;;;;;-146.25;100.00;52514.19;2079020;28;41135;-77
2023/01/11 01:45:16;;;;;;;14.45;13.00;;;;;;;-146.25;100.00;52514.19;2087576;28;38755;-77
2023/01/11 01:46:21;;;;;;;14.05;12.75;;;;;;;-146.25;100.00;52493.91;2083955;28;42190;-77
2023/01/11 01:47:35;;;;;;;14.15;12.82;;;;;;;-146.25;100.00;52506.06;2079519;28;37966;-77
2023/01/11 01:48:40;;;;;;;13.70;12.38;;;;;;;-146.25;100.00;52447.28;2080514;28;20038;-78
2023/01/11 01:49:44;;;;;;;14.88;13.43;;;;;;;-146.25;100.00;52506.06;2087138;28;42448;-77
2023/01/11 01:50:58;;;;;;;14.32;13.00;;;;;;;-146.25;100.00;52500.00;2086328;28;38290;-77
2023/01/11 01:52:00;;;;;;;13.77;12.57;;;;;;;-146.25;100.00;52493.91;2087168;28;35810;-77
2023/01/11 01:53:12;;;;;;;14.77;13.48;;;;;;;-146.25;100.00;52493.91;2086097;28;41045;-77
2023/01/11 01:54:21;;;;;;;14.27;12.95;;;;;;;-146.25;100.00;52495.94;2080587;28;20042;-79
2023/01/11 01:55:33;;;;;;;14.18;12.88;;;;;;;-146.25;100.00;52500.00;2079558;28;42284;-77
2023/01/11 01:56:51;;;;;;;14.38;12.98;;;;;;;-146.25;100.00;52502.03;2087328;28;37508;-77
2023/01/11 01:57:54;;;;;;;14.60;13.15;;;;;;;-146.25;100.00;52528.38;2083879;28;38691;-77
2023/01/11 01:59:04;;;;;;;15.55;13.27;;;;;;;-146.25;100.00;52491.88;2078638;28;41120;-77
2023/01/11 02:00:09;;;;;;;14.30;12.90;;;;;;;-146.25;100.00;52510.13;2079094;28;36527;-77
2023/01/11 02:02:36;;;;;;;13.50;12.20;;;;;;;-146.25;100.00;52465.53;2087685;28;20168;-77
2023/01/11 02:03:37;;;;;;;14.65;13.15;;;;;;;-146.25;100.00;52542.56;2083771;28;41121;-77
2023/01/11 02:04:43;;;;;;;13.52;12.32;;;;;;;-146.25;100.00;52526.34;2078887;28;34721;-77
2023/01/11 02:05:45;;;;;;;13.57;12.38;;;;;;;-146.25;100.00;52481.75;2086941;28;34688;-77
2023/01/11 02:06:47;;;;;;;14.98;13.68;;;;;;;-146.25;100.00;52530.41;2086458;28;43528;-77
2023/01/11 02:07:50;;;;;;;13.93;12.63;;;;;;;-146.25;100.00;52477.69;2078743;28;38544;-77
2023/01/11 02:09:03;;;;;;;14.25;12.88;;;;;;;-146.25;100.00;52504.03;2079457;28;38620;-77
2023/01/11 02:10:17;;;;;;;13.43;12.23;;;;;;;-146.25;100.00;52502.03;2087482;28;31116;-76
2023/01/11 02:11:31;;;;;;;13.45;12.25;;;;;;;-146.25;100.00;52526.34;2084570;28;38031;-77
2023/01/11 02:12:59;;;;;;;13.68;12.43;;;;;;;-146.25;100.00;52473.63;2086849;28;43138;-77
2023/01/11 02:14:07;;;;;;;13.43;12.18;;;;;;;-146.25;100.00;52528.38;2079126;28;20189;-77
2023/01/11 02:15:10;;;;;;;13.90;12.60;;;;;;;-146.25;100.00;52487.81;2078475;28;42983;-77
2023/01/11 02:16:13;;;;;;;13.23;11.90;;;;;;;-146.25;100.00;52475.66;2079491;28;20803;-78
2023/01/11 02:17:17;;;;;;;13.65;12.38;;;;;;;-146.25;100.00;52502.03;2079570;28;20050;-77
2023/01/11 02:18:20;;;;;;;13.27;11.98;;;;;;;-146.25;100.00;52516.22;2078582;28;41638;-77
2023/01/11 02:19:53;;;;;;;13.27;12.07;;;;;;;-146.25;100.00;52483.78;2087301;28;32272;-77
2023/01/11 02:21:15;;;;;;;13.25;11.82;;;;;;;-146.25;100.00;52504.03;2082264;28;39542;-77
2023/01/11 02:23:08;;;;;;;13.13;11.93;;;;;;;-146.25;100.00;52477.69;2078956;28;41592;-77
2023/01/11 02:24:46;;;;;;;13.00;11.70;;;;;;;-146.25;100.00;52495.94;2079794;28;40129;-77
2023/01/11 02:26:15;;;;;;;12.60;11.40;;;;;;;-146.25;100.00;52500.00;2081005;28;38249;-77
2023/01/11 02:27:48;;;;;;;13.40;12.10;;;;;;;-146.25;100.00;52497.97;2071911;28;40116;-77
2023/01/11 02:29:21;;;;;;;12.88;11.73;;;;;;;-146.25;100.00;52522.28;2075683;28;38937;-77
2023/01/11 02:31:13;;;;;;;13.30;12.10;;;;;;;-146.25;100.00;52457.41;2079417;28;20054;-77
2023/01/11 02:32:41;;;;;;;13.38;12.10;;;;;;;-146.25;100.00;52497.97;2080576;28;42146;-78
2023/01/11 02:34:18;;;;;;;13.32;12.18;;;;;;;-146.25;100.00;52510.13;2080804;28;38131;-77
2023/01/11 02:35:57;;;;;;;13.38;12.13;;;;;;;-146.25;100.00;52522.28;2079755;28;38548;-77
2023/01/11 02:37:20;;;;;;;12.45;11.00;;;;;;;-146.25;100.00;52473.63;2080296;28;39117;-77
2023/01/11 02:39:00;;;;;;;13.23;12.02;;;;;;;-146.25;100.00;52497.97;2080926;28;41529;-77
2023/01/11 02:40:21;;;;;;;13.77;12.43;;;;;;;-146.25;100.00;52516.22;2089290;28;29586;-77
2023/01/11 02:45:36;;;;;;;12.88;11.57;;;;;;;-146.25;100.00;52530.41;2088381;28;38076;-77
2023/01/11 02:46:57;;;;;;;13.50;12.15;;;;;;;-146.25;100.00;52514.19;2080684;28;42817;-77
2023/01/11 02:48:02;;;;;;;12.98;11.73;;;;;;;-146.25;100.00;52493.91;2080642;28;40197;-77
2023/01/11 02:49:30;;;;;;;13.35;12.05;;;;;;;-146.25;100.00;52497.97;2079876;28;46807;-77
2023/01/11 02:51:25;;;;;;;13.68;12.43;;;;;;;-146.25;100.00;52483.78;2080551;28;39993;-77
2023/01/11 02:52:48;;;;;;;13.57;12.18;;;;;;;-146.25;100.00;52512.16;2074159;28;38986;-77
2023/01/11 02:53:58;;;;;;;14.32;12.75;;;;;;;-146.25;100.00;52479.72;2080273;28;38551;-76
2023/01/11 02:55:02;;;;;;;14.60;13.13;;;;;;;-146.25;100.00;52518.25;2088098;28;39766;-77
2023/01/11 02:56:17;;;;;;;15.75;14.32;;;;;;;-146.25;100.00;52467.56;2086871;28;39513;-77
2023/01/11 02:57:23;;;;;;;14.68;13.30;;;;;;;-146.25;100.00;52495.94;2079964;28;41861;-77
2023/01/11 02:58:32;;;;;;;14.48;13.18;;;;;;;-146.25;100.00;52504.03;2079851;28;40429;-77
2023/01/11 02:59:38;;;;;;;14.60;13.20;;;;;;;-146.25;100.00;52479.72;2080415;28;40543;-76
2023/01/11 03:00:41;;;;;;;14.07;12.82;;;;;;;-146.25;100.00;52522.28;2087518;28;39128;-76
2023/01/11 03:01:52;;;;;;;14.90;13.52;;;;;;;-146.25;100.00;52467.56;2087627;28;40013;-79
2023/01/11 03:03:15;;;;;;;13.88;12.63;;;;;;;-146.25;100.00;52481.75;2080306;28;39689;-78
2023/01/11 03:04:23;;;;;;;14.63;13.25;;;;;;;-146.25;100.00;52485.81;2080754;28;37254;-76
2023/01/11 03:05:24;;;;;;;13.75;12.55;;;;;;;-146.25;100.00;52489.84;2079071;28;42316;-76
2023/01/11 03:06:34;;;;;;;15.05;13.55;;;;;;;-146.25;100.00;52487.81;2079809;28;37436;-78
2023/01/11 03:08:06;;;;;;;13.88;12.57;;;;;;;-146.25;100.00;52493.91;2080403;28;20049;-76
2023/01/11 03:09:37;;;;;;;15.20;12.82;;;;;;;-146.25;100.00;52502.03;2080329;28;42778;-77
2023/01/11 03:11:05;;;;;;;13.88;12.48;;;;;;;-146.25;100.00;52467.56;2081600;28;20050;-77
2023/01/11 03:14:03;;;;;;;14.15;12.73;;;;;;;-146.25;100.00;52489.84;2080727;28;20133;-75
2023/01/11 03:15:48;;;;;;;12.93;11.73;;;;;;;-146.25;100.00;52465.53;2080113;28;40707;-76
2023/01/11 03:17:26;;;;;;;13.45;12.10;;;;;;;-146.25;100.00;52500.00;2079809;28;39039;-77
2023/01/11 03:18:52;;;;;;;13.38;12.07;;;;;;;-146.25;100.00;52506.06;2080309;28;40375;-77
2023/01/11 03:20:07;;;;;;;14.13;12.73;;;;;;;-146.25;100.00;52506.06;2080788;28;39458;-77
2023/01/11 03:21:36;;;;;;;12.85;11.65;;;;;;;-146.25;100.00;52532.44;2080177;28;40143;-77
2023/01/11 03:22:57;;;;;;;13.20;11.93;;;;;;;-146.25;100.00;52491.88;2080636;28;36538;-77
2023/01/11 03:24:12;;;;;;;;;;;;;;;-146.25;100.00;52502.03;2080442;28;38845;-77
2023/01/11 03:25:30;;;;;;;13.10;11.57;;;;;;;-146.25;100.00;52487.81;2080081;28;41523;-77
2023/01/11 03:27:18;;;;;;;12.77;11.57;;;;;;;-146.25;100.00;52532.44;2081247;28;20976;-77
2023/01/11 03:28:53;;;;;;;13.57;12.30;;;;;;;-146.25;100.00;52461.47;2080303;28;40408;-76
2023/01/11 03:30:10;;;;;;;12.52;11.43;;;;;;;-146.25;100.00;52463.50;2080439;28;36575;-75
2023/01/11 03:31:21;;;;;;;13.27;12.07;;;;;;;-146.25;100.00;52504.03;2080130;28;40358;-76
2023/01/11 03:32:43;;;;;;;13.20;12.00;;;;;;;-146.25;100.00;52465.53;2080540;28;37661;-75
2023/01/11 03:34:17;;;;;;;13.38;12.07;;;;;;;-146.25;100.00;52461.47;2087772;28;39129;-75
2023/01/11 03:35:32;;;;;;;13.00;11.82;;;;;;;-146.25;100.00;52485.81;2081068;28;38770;-77
2023/01/11 03:36:58;;;;;;;12.63;11.00;;;;;;;-146.25;100.00;52473.63;2080369;28;41430;-77
2023/01/11 03:38:19;;;;;;;12.15;11.05;;;;;;;-146.25;100.00;52512.16;2087474;28;41413;-77
2023/01/11 03:39:39;;;;;;;;;;;;;;;-146.25;100.00;52500.00;2083811;28;39840;-76
2023/01/11 03:40:48;;;;;;;12.15;10.52;;;;;;;-146.25;100.00;52461.47;2080084;28;40811;-76
2023/01/11 03:41:56;;;;;;;11.45;10.45;;;;;;;-146.25;100.00;52497.97;2087707;28;42245;-76
2023/01/11 03:43:10;;;;;;;11.98;10.88;;;;;;;-146.25;100.00;52512.16;2086255;28;39650;-76
2023/01/11 03:44:17;;;;;;;12.32;11.13;;;;;;;-146.25;100.00;52502.03;2087320;28;43329;-76
2023/01/11 03:45:19;;;;;;;12.18;11.00;;;;;;;-146.25;100.00;52532.44;2080109;28;42411;-76
2023/01/11 03:46:28;;;;;;;12.40;11.20;;;;;;;-146.25;100.00;52481.75;2080032;28;20050;-76
2023/01/11 03:47:33;;;;;;;12.60;11.30;;;;;;;-146.25;100.00;52508.09;2087969;28;44008;-77
2023/01/11 03:48:54;;;;;;;11.95;10.75;;;;;;;-146.25;100.00;52500.00;2086122;28;37668;-76
2023/01/11 03:50:09;;;;;;;12.32;11.23;;;;;;;-146.25;100.00;52504.03;2080010;28;38455;-76
2023/01/11 03:51:17;;;;;;;11.98;10.88;;;;;;;-146.25;100.00;52493.91;2088072;28;41456;-77
2023/01/11 03:52:28;;;;;;;12.13;10.88;;;;;;;-146.25;100.00;52497.97;2086104;28;20042;-76
2023/01/11 03:53:34;;;;;;;12.25;11.15;;;;;;;-146.25;100.00;52514.19;2079994;28;41114;-77
2023/01/11 03:54:38;;;;;;;11.73;10.80;;;;;;;-146.25;100.00;52526.34;2080789;28;20034;-77
2023/01/11 03:55:45;;;;;;;11.63;10.52;;;;;;;-146.25;100.00;52514.19;2086595;28;42612;-77
2023/01/11 03:57:06;;;;;;;10.88;9.98;;;;;;;-146.25;100.00;52483.78;2086946;28;37272;-76
2023/01/11 03:58:08;;;;;;;11.45;10.23;;;;;;;-146.25;100.00;52489.84;2080408;28;39575;-75
2023/01/11 03:59:10;;;;;;;11.18;10.20;;;;;;;-146.25;100.00;52483.78;2079757;28;38308;-77
2023/01/11 04:00:12;;;;;;;10.73;9.70;;;;;;;-146.25;100.00;52542.56;2087967;28;35808;-76
2023/01/11 04:01:14;;;;;;;10.23;9.30;;;;;;;-146.25;100.00;52524.31;2087019;28;40856;-77
2023/01/11 04:02:20;;;;;;;10.77;9.77;;;;;;;-146.25;100.00;52522.28;2079521;28;39966;-76
2023/01/11 04:03:22;;;;;;;11.32;10.32;;;;;;;-146.25;100.00;52477.69;2079969;28;34599;-76
2023/01/11 04:04:27;;;;;;;11.25;10.20;;;;;;;-146.25;100.00;52491.88;2079897;28;37544;-77
2023/01/11 04:05:29;;;;;;;11.02;9.90;;;;;;;-146.25;100.00;52497.97;2080233;28;20887;-76
2023/01/11 04:06:35;;;;;;;10.85;9.93;;;;;;;-146.25;100.00;52483.78;2079352;28;41644;-76
2023/01/11 04:07:37;;;;;;;10.35;9.40;;;;;;;-146.25;100.00;52508.09;2079647;28;41282;-77
2023/01/11 04:08:38;;;;;;;11.30;10.25;;;;;;;-146.25;100.00;52522.28;2079590;28;37696;-76
2023/01/11 04:09:40;;;;;;;10.15;9.25;;;;;;;-146.25;100.00;52528.38;2079453;28;39232;-77
2023/01/11 04:10:42;;;;;;;10.60;9.50;;;;;;;-146.25;100.00;52526.34;2080387;28;38688;-77
2023/01/11 04:11:45;;;;;;;9.68;8.88;;;;;;;-146.25;100.00;52471.59;2080687;28;20137;-77
2023/01/11 04:12:47;;;;;;;9.98;9.15;;;;;;;-146.25;100.00;52497.97;2071279;28;42538;-77
2023/01/11 04:13:49;;;;;;;10.00;9.20;;;;;;;-146.25;100.00;52516.22;2063028;28;38117;-77
2023/01/11 04:14:51;;;;;;;9.18;8.48;;;;;;;-146.25;100.00;52508.09;2071645;28;33461;-77
2023/01/11 04:15:53;;;;;;;10.30;9.40;;;;;;;-146.25;100.00;52508.09;2080103;28;39713;-76
2023/01/11 04:16:54;;;;;;;9.00;8.10;;;;;;;-146.25;100.00;52522.28;2079018;28;37273;-76
2023/01/11 04:18:03;;;;;;;9.93;9.13;;;;;;;-146.25;100.00;52487.81;2080004;28;20822;-76
2023/01/11 04:19:05;;;;;;;9.80;8.90;;;;;;;-146.25;100.00;52495.94;2080323;28;36371;-77
2023/01/11 04:20:11;;;;;;;10.20;9.20;;;;;;;-146.25;100.00;52512.16;2079953;28;39138;-76
2023/01/11 04:21:13;;;;;;;10.00;9.05;;;;;;;-146.25;100.00;52500.00;2080068;28;41872;-77
2023/01/11 04:22:14;;;;;;;9.60;8.70;;;;;;;-146.25;100.00;52497.97;2079995;28;38956;-76
2023/01/11 04:23:16;;;;;;;9.63;8.85;;;;;;;-146.25;100.00;52491.88;2080174;28;38967;-76
2023/01/11 04:24:18;;;;;;;9.60;8.70;;;;;;;-146.25;100.00;52512.16;2080068;28;40139;-76
2023/01/11 04:25:22;;;;;;;8.75;7.95;;;;;;;-146.25;100.00;52528.38;2080244;28;39903;-77
2023/01/11 04:26:23;;;;;;;8.73;7.95;;;;;;;-146.25;100.00;52514.19;2080015;28;35947;-76
2023/01/11 04:27:25;;;;;;;8.73;8.02;;;;;;;-146.25;100.00;52481.75;2079791;28;20030;-76
2023/01/11 04:28:27;;;;;;;8.70;7.90;;;;;;;-146.25;100.00;52479.72;2079338;28;41295;-77
2023/01/11 04:29:28;;;;;;;8.82;8.02;;;;;;;-146.25;100.00;52489.84;2079935;28;38839;-76
2023/01/11 04:30:31;;;;;;;8.20;7.60;;;;;;;-146.25;100.00;52510.13;2080246;28;40326;-77
2023/01/11 04:31:34;;;;;;;7.78;7.07;;;;;;;-146.25;100.00;52497.97;2080010;28;39324;-77
2023/01/11 04:32:36;;;;;;;8.07;7.43;;;;;;;-146.25;100.00;52481.75;2080494;28;20925;-76
2023/01/11 04:33:40;;;;;;;8.30;7.50;;;;;;;-146.25;100.00;52514.19;2080572;28;39844;-77
2023/01/11 04:34:42;;;;;;;8.55;7.75;;;;;;;-146.25;100.00;52477.69;2079484;28;36348;-77
2023/01/11 04:35:44;;;;;;;7.68;7.07;;;;;;;-146.25;100.00;52477.69;2080221;28;20220;-76
2023/01/11 04:36:46;;;;;;;7.70;7.18;;;;;;;-146.25;100.00;52508.09;2079569;28;41254;-77
2023/01/11 04:37:49;;;;;;;7.97;7.35;;;;;;;-146.25;100.00;52510.13;2079990;28;40518;-76
2023/01/11 04:38:51;;;;;;;7.28;6.68;;;;;;;-146.25;100.00;52546.63;2071205;28;25164;-76
2023/01/11 04:39:53;;;;;;;7.25;6.65;;;;;;;-146.25;100.00;52512.16;2071317;28;38867;-76
2023/01/11 04:42:17;;;;;;;7.35;6.75;;;;;;;-146.25;100.00;52530.41;2080011;28;38185;-76
2023/01/11 04:42:19;;;;;;;7.25;6.55;;;;;;;-146.25;100.00;52475.66;2079883;28;34178;-76
2023/01/11 04:43:24;;;;;;;8.07;6.43;;;;;;;-146.25;100.00;52502.03;2080248;28;31988;-77
2023/01/11 04:44:25;;;;;;;7.10;6.40;;;;;;;-146.25;100.00;52506.06;2080127;28;21018;-76
2023/01/11 04:45:29;;;;;;;6.82;6.20;;;;;;;-146.25;100.00;52483.78;2080912;28;20038;-77
2023/01/11 04:46:31;;;;;;;7.43;6.30;;;;;;;-146.25;100.00;52497.97;2079338;28;22981;-76
2023/01/11 04:47:32;;;;;;;6.60;6.07;;;;;;;-146.25;100.00;52500.00;2079225;28;24841;-76
2023/01/11 04:48:34;;;;;;;7.10;6.50;;;;;;;-146.25;100.00;52504.03;2079428;28;39513;-76
2023/01/11 04:49:36;;;;;;;7.20;6.60;;;;;;;-146.25;100.00;52500.00;2087737;28;32989;-77
2023/01/11 04:50:38;;;;;;;7.07;6.47;;;;;;;-146.25;100.00;52479.72;2087512;28;34869;-76
2023/01/11 04:51:40;;;;;;;6.75;6.18;;;;;;;-146.25;100.00;52530.41;2079106;28;38914;-76
2023/01/11 04:52:41;;;;;;;6.25;5.57;;;;;;;-146.25;100.00;52493.91;2080294;28;20038;-76
2023/01/11 04:53:46;;;;;;;6.80;6.30;;;;;;;-146.25;100.00;52493.91;2079165;28;40717;-76
2023/01/11 04:54:51;;;;;;;6.55;6.05;;;;;;;-146.25;100.00;52540.53;2079524;28;31925;-76
2023/01/11 04:55:59;;;;;;;6.18;5.57;;;;;;;-146.25;100.00;52502.03;2087432;28;37512;-76
2023/01/11 04:57:00;;;;;;;6.47;6.03;;;;;;;-146.25;100.00;52481.75;2078038;28;40498;-76
2023/01/11 04:58:02;;;;;;;5.93;5.43;;;;;;;-146.25;100.00;52447.28;2071629;28;25732;-76
2023/01/11 04:59:04;;;;;;;6.45;5.95;;;;;;;-146.25;100.00;52469.56;2079391;28;43420;-77
2023/01/11 05:00:09;;;;;;;6.38;5.93;;;;;;;-146.25;100.00;52516.22;2079144;28;39664;-76
2023/01/11 05:01:19;;;;;;;6.50;5.85;;;;;;;-146.25;100.00;52506.06;2078678;28;36966;-76
2023/01/11 05:02:21;;;;;;;5.63;5.22;;;;;;;-146.25;100.00;52504.03;2079819;28;40727;-76
2023/01/11 05:03:23;;;;;;;6.28;5.80;;;;;;;-146.25;100.00;52477.69;2080558;28;20918;-76
2023/01/11 05:04:24;;;;;;;7.00;6.30;;;;;;;-146.25;100.00;52514.19;2079860;28;40764;-77
2023/01/11 05:05:26;;;;;;;6.60;6.10;;;;;;;-146.25;100.00;52508.09;2079228;28;39521;-76
2023/01/11 05:06:32;;;;;;;6.45;6.05;;;;;;;-146.25;100.00;52530.41;2079696;28;26381;-76
2023/01/11 05:07:34;;;;;;;6.10;5.65;;;;;;;-146.25;100.00;52497.97;2079305;28;37141;-77
2023/01/11 05:08:36;;;;;;;6.20;5.72;;;;;;;-146.25;100.00;52502.03;2079687;28;42037;-76
2023/01/11 05:09:39;;;;;;;6.20;5.70;;;;;;;-146.25;100.00;52491.88;2079805;28;39835;-76
2023/01/11 05:10:41;;;;;;;6.22;5.82;;;;;;;-146.25;100.00;52493.91;2070943;28;39780;-76
2023/01/11 05:11:43;;;;;;;6.38;5.88;;;;;;;-146.25;100.00;52475.66;2070913;28;39796;-76
2023/01/11 05:12:46;;;;;;;6.55;6.15;;;;;;;-146.25;100.00;52479.72;2080616;28;20835;-76
2023/01/11 05:13:48;;;;;;;6.20;5.80;;;;;;;-146.25;100.00;52520.28;2079512;28;42150;-76
2023/01/11 05:14:50;;;;;;;7.13;6.63;;;;;;;-146.25;100.00;52506.06;2079506;28;38527;-76
2023/01/11 05:15:51;;;;;;;6.53;6.03;;;;;;;-146.25;100.00;52502.03;2079438;28;39394;-76
2023/01/11 05:16:53;;;;;;;6.53;6.03;;;;;;;-146.25;100.00;52560.81;2079896;28;37055;-76
2023/01/11 05:17:55;;;;;;;7.25;6.55;;;;;;;-146.25;100.00;52489.84;2079596;28;38395;-76
2023/01/11 05:18:59;;;;;;;7.03;6.53;;;;;;;-146.25;100.00;52500.00;2079622;28;38245;-77
2023/01/11 05:20:01;;;;;;;6.75;6.22;;;;;;;-146.25;100.00;52512.16;2078690;28;39694;-76
2023/01/11 05:21:03;;;;;;;7.05;6.50;;;;;;;-146.25;100.00;52506.06;2079307;28;39215;-76
2023/01/11 05:22:05;;;;;;;6.47;5.97;;;;;;;-146.25;100.00;52477.69;2079524;28;39267;-76